Time,TemperatureF,DewpointF,PressureIn,WindDirection,WindDirectionDegrees,WindSpeedMPH,WindSpeedGustMPH,Humidity,HourlyPrecipIn,Conditions,Clouds,dailyrainin,SoftwareType,DateUTC
2013-02-18 00:00:00,43.0,34.9,29.80,SSE,157,0.0,9.0,73,0.00,,,-99.99,Weather View 32 v60,2013-02-18 06:00:00,
2013-02-18 00:15:00,42.0,34.3,29.80,SW,225,0.0,9.0,74,0.00,,,-99.99,Weather View 32 v60,2013-02-18 06:15:00,
2013-02-18 00:30:00,42.0,34.0,29.80,West,270,3.0,9.0,73,0.00,,,-99.99,Weather View 32 v60,2013-02-18 06:30:00,
2013-02-18 00:45:00,42.0,34.0,29.82,West,270,1.0,12.0,73,0.00,,,-99.99,Weather View 32 v60,2013-02-18 06:45:00,
2013-02-18 01:00:00,41.0,34.0,29.83,WNW,292,6.0,12.0,76,0.00,,,-99.99,Weather View 32 v60,2013-02-18 07:00:00,
2013-02-18 01:15:00,40.0,34.0,29.83,NNW,337,3.0,12.0,79,0.00,,,-99.99,Weather View 32 v60,2013-02-18 07:15:00,
2013-02-18 01:30:00,39.0,33.3,29.83,NNE,22,2.0,12.0,80,0.00,,,-99.99,Weather View 32 v60,2013-02-18 07:30:00,
2013-02-18 01:45:00,39.0,34.0,29.83,WNW,292,0.0,16.0,82,0.00,,,-99.99,Weather View 32 v60,2013-02-18 07:45:00,
2013-02-18 02:00:00,38.0,33.3,29.84,NNW,337,6.0,16.0,83,0.00,,,-99.99,Weather View 32 v60,2013-02-18 08:00:00,
2013-02-18 02:15:00,38.0,33.3,29.83,NNW,337,4.0,16.0,83,0.00,,,-99.99,Weather View 32 v60,2013-02-18 08:15:00,
2013-02-18 02:30:00,38.0,33.3,29.83,NNE,22,1.0,16.0,83,0.00,,,-99.99,Weather View 32 v60,2013-02-18 08:30:00,
2013-02-18 02:36:00,38.0,33.3,29.83,NNE,22,1.0,16.0,83,0.00,,,-99.99,Weather View 32 v60,2013-02-18 08:36:00,
2013-02-18 02:45:00,38.0,33.3,29.82,NNW,337,8.0,12.0,83,0.00,,,-99.99,Weather View 32 v60,2013-02-18 08:45:00,
2013-02-18 03:00:00,39.0,33.7,29.81,ENE,67,8.0,17.0,81,0.00,,,-99.99,Weather View 32 v60,2013-02-18 09:00:00,
2013-02-18 03:15:00,39.0,33.7,29.81,NNW,337,8.0,19.0,81,0.00,,,-99.99,Weather View 32 v60,2013-02-18 09:15:00,
2013-02-18 03:30:00,39.0,33.3,29.81,NNW,337,22.0,22.0,80,0.00,,,-99.99,Weather View 32 v60,2013-02-18 09:30:00,
2013-02-18 03:36:00,39.0,33.3,29.81,NNW,337,22.0,22.0,80,0.00,,,-99.99,Weather View 32 v60,2013-02-18 09:36:00,
2013-02-18 03:45:00,39.0,33.7,29.81,NW,315,10.0,23.0,81,0.00,,,-99.99,Weather View 32 v60,2013-02-18 09:45:00,
2013-02-18 04:00:00,38.0,33.3,29.81,NNW,337,14.0,23.0,83,0.00,,,-99.99,Weather View 32 v60,2013-02-18 10:00:00,
2013-02-18 04:15:00,38.0,33.0,29.82,NNW,337,7.0,23.0,82,0.00,,,-99.99,Weather View 32 v60,2013-02-18 10:15:00,
2013-02-18 04:30:00,38.0,33.0,29.83,NNE,22,1.0,23.0,82,0.00,,,-99.99,Weather View 32 v60,2013-02-18 10:30:00,
2013-02-18 04:37:00,38.0,33.0,29.83,NNE,22,1.0,23.0,82,0.00,,,-99.99,Weather View 32 v60,2013-02-18 10:37:00,
2013-02-18 04:45:00,38.0,33.0,29.83,NNW,337,15.0,23.0,82,0.00,,,-99.99,Weather View 32 v60,2013-02-18 10:45:00,
2013-02-18 05:00:00,38.0,32.7,29.83,NNW,337,18.0,22.0,81,0.00,,,-99.99,Weather View 32 v60,2013-02-18 11:00:00,
2013-02-18 05:15:00,38.0,32.7,29.83,NNW,337,6.0,22.0,81,0.00,,,-99.99,Weather View 32 v60,2013-02-18 11:15:00,
2013-02-18 05:30:00,37.0,32.3,29.83,NNE,22,5.0,21.0,83,0.00,,,-99.99,Weather View 32 v60,2013-02-18 11:30:00,
2013-02-18 05:38:00,37.0,32.3,29.83,NNE,22,5.0,21.0,83,0.00,,,-99.99,Weather View 32 v60,2013-02-18 11:38:00,
2013-02-18 05:45:00,37.0,32.3,29.84,North,360,9.0,21.0,83,0.00,,,-99.99,Weather View 32 v60,2013-02-18 11:45:00,
2013-02-18 06:00:00,37.0,32.6,29.85,NW,315,8.0,25.0,84,0.00,,,-99.99,Weather View 32 v60,2013-02-18 12:00:00,
2013-02-18 06:15:00,37.0,32.9,29.86,NNW,337,8.0,25.0,85,0.00,,,-99.99,Weather View 32 v60,2013-02-18 12:15:00,
2013-02-18 06:30:00,37.0,32.6,29.86,North,360,1.0,25.0,84,0.00,,,-99.99,Weather View 32 v60,2013-02-18 12:30:00,
2013-02-18 06:38:00,37.0,32.6,29.86,North,360,1.0,25.0,84,0.00,,,-99.99,Weather View 32 v60,2013-02-18 12:38:00,
2013-02-18 06:45:00,37.0,32.6,29.86,NNW,337,9.0,25.0,84,0.00,,,-99.99,Weather View 32 v60,2013-02-18 12:45:00,
2013-02-18 07:00:00,37.0,32.6,29.87,NNW,337,10.0,22.0,84,0.00,,,-99.99,Weather View 32 v60,2013-02-18 13:00:00,
2013-02-18 07:15:00,37.0,32.3,29.87,NNW,337,12.0,23.0,83,0.00,,,-99.99,Weather View 32 v60,2013-02-18 13:15:00,
2013-02-18 07:30:00,37.0,31.7,29.87,NNE,22,1.0,25.0,81,0.00,,,-99.99,Weather View 32 v60,2013-02-18 13:30:00,
2013-02-18 07:39:00,37.0,31.7,29.87,NNE,22,1.0,25.0,81,0.00,,,-99.99,Weather View 32 v60,2013-02-18 13:39:00,
2013-02-18 07:45:00,37.0,31.7,29.88,NNW,337,7.0,34.0,81,0.00,,,-99.99,Weather View 32 v60,2013-02-18 13:45:00,
2013-02-18 08:00:00,36.0,31.0,29.88,NW,315,10.0,34.0,82,0.00,,,-99.99,Weather View 32 v60,2013-02-18 14:00:00,
2013-02-18 08:15:00,36.0,30.7,29.88,NNW,337,15.0,34.0,81,0.00,,,-99.99,Weather View 32 v60,2013-02-18 14:15:00,
2013-02-18 08:30:00,35.0,29.8,29.89,North,360,13.0,34.0,81,0.00,,,-99.99,Weather View 32 v60,2013-02-18 14:30:00,
2013-02-18 08:39:00,35.0,29.8,29.89,North,360,13.0,34.0,81,0.00,,,-99.99,Weather View 32 v60,2013-02-18 14:39:00,
2013-02-18 08:45:00,34.0,29.7,29.91,North,360,11.0,39.0,84,0.00,,,-99.99,Weather View 32 v60,2013-02-18 14:45:00,
2013-02-18 09:00:00,32.0,25.0,29.91,NNE,22,9.0,39.0,75,0.00,,,-99.99,Weather View 32 v60,2013-02-18 15:00:00,
2013-02-18 09:15:00,30.0,24.3,29.96,WNW,292,18.0,39.0,79,0.00,,,-99.99,Weather View 32 v60,2013-02-18 15:15:00,
2013-02-18 09:30:00,28.0,22.0,29.97,NNW,337,16.0,39.0,78,0.00,,,-99.99,Weather View 32 v60,2013-02-18 15:30:00,
2013-02-18 09:45:00,28.0,22.6,29.99,North,360,13.0,37.0,80,0.00,,,-99.99,Weather View 32 v60,2013-02-18 15:45:00,
2013-02-18 10:00:00,28.0,22.3,29.99,NNW,337,19.0,37.0,79,0.00,,,-99.99,Weather View 32 v60,2013-02-18 16:00:00,
2013-02-18 10:15:00,28.0,22.0,29.99,NNW,337,15.0,37.0,78,0.00,,,-99.99,Weather View 32 v60,2013-02-18 16:15:00,
2013-02-18 10:30:00,28.0,22.3,30.01,NW,315,22.0,37.0,79,0.00,,,-99.99,Weather View 32 v60,2013-02-18 16:30:00,
2013-02-18 10:45:00,28.0,22.6,30.01,NNW,337,23.0,33.0,80,0.00,,,-99.99,Weather View 32 v60,2013-02-18 16:45:00,
2013-02-18 11:00:00,27.0,20.4,30.02,NNW,337,16.0,34.0,76,0.00,,,-99.99,Weather View 32 v60,2013-02-18 17:00:00,
2013-02-18 11:15:00,27.0,19.8,30.02,NW,315,18.0,34.0,74,0.00,,,-99.99,Weather View 32 v60,2013-02-18 17:15:00,
2013-02-18 11:30:00,27.0,20.1,30.03,North,360,19.0,34.0,75,0.00,,,-99.99,Weather View 32 v60,2013-02-18 17:30:00,
2013-02-18 11:45:00,26.0,18.2,30.04,NNE,22,16.0,39.0,72,0.00,,,-99.99,Weather View 32 v60,2013-02-18 17:45:00,
2013-02-18 12:00:00,26.0,18.2,30.04,West,270,10.0,39.0,72,0.00,,,-99.99,Weather View 32 v60,2013-02-18 18:00:00,
2013-02-18 12:15:00,26.0,18.5,30.04,NNW,337,8.0,39.0,73,0.00,,,-99.99,Weather View 32 v60,2013-02-18 18:15:00,
2013-02-18 12:30:00,25.0,17.6,30.06,NNE,22,5.0,39.0,73,0.00,,,-99.99,Weather View 32 v60,2013-02-18 18:30:00,
2013-02-18 12:31:00,25.0,17.6,30.06,NNE,22,5.0,39.0,73,0.00,,,-99.99,Weather View 32 v60,2013-02-18 18:31:00,
2013-02-18 12:45:00,25.0,17.2,30.06,North,360,13.0,32.0,72,0.00,,,-99.99,Weather View 32 v60,2013-02-18 18:45:00,
2013-02-18 13:00:00,26.0,17.2,30.06,NNE,22,21.0,35.0,69,0.00,,,-99.99,Weather View 32 v60,2013-02-18 19:00:00,
2013-02-18 13:15:00,26.0,17.6,30.06,NW,315,13.0,37.0,70,0.00,,,-99.99,Weather View 32 v60,2013-02-18 19:15:00,
2013-02-18 13:30:00,25.0,16.3,30.08,North,360,16.0,40.0,69,0.00,,,-99.99,Weather View 32 v60,2013-02-18 19:30:00,
2013-02-18 13:45:00,25.0,16.9,30.08,NNW,337,16.0,40.0,71,0.00,,,-99.99,Weather View 32 v60,2013-02-18 19:45:00,
2013-02-18 14:00:00,24.0,16.0,30.08,NW,315,8.0,40.0,71,0.00,,,-99.99,Weather View 32 v60,2013-02-18 20:00:00,
2013-02-18 14:15:00,24.0,15.3,30.08,NW,315,23.0,40.0,69,0.00,,,-99.99,Weather View 32 v60,2013-02-18 20:15:00,
2013-02-18 14:30:00,25.0,16.3,30.10,NW,315,19.0,37.0,69,0.00,,,-99.99,Weather View 32 v60,2013-02-18 20:30:00,
2013-02-18 14:45:00,24.0,14.3,30.10,NW,315,12.0,37.0,66,0.00,,,-99.99,Weather View 32 v60,2013-02-18 20:45:00,
2013-02-18 15:00:00,25.0,15.2,30.10,NNW,337,14.0,37.0,66,0.00,,,-99.99,Weather View 32 v60,2013-02-18 21:00:00,
2013-02-18 15:15:00,23.0,14.3,30.10,NNW,337,8.0,36.0,69,0.00,,,-99.99,Weather View 32 v60,2013-02-18 21:15:00,
2013-02-18 15:30:00,23.0,14.3,30.10,NNW,337,13.0,36.0,69,0.00,,,-99.99,Weather View 32 v60,2013-02-18 21:30:00,
2013-02-18 15:45:00,25.0,15.9,30.10,NW,315,9.0,35.0,68,0.00,,,-99.99,Weather View 32 v60,2013-02-18 21:45:00,
2013-02-18 16:00:00,23.0,15.3,30.11,NNW,337,16.0,35.0,72,0.00,,,-99.99,Weather View 32 v60,2013-02-18 22:00:00,
2013-02-18 16:15:00,23.0,14.7,30.12,WNW,292,22.0,37.0,70,0.00,,,-99.99,Weather View 32 v60,2013-02-18 22:15:00,
2013-02-18 16:30:00,23.0,15.0,30.12,NNE,22,8.0,37.0,71,0.00,,,-99.99,Weather View 32 v60,2013-02-18 22:30:00,
2013-02-18 16:45:00,23.0,15.6,30.13,NNE,22,9.0,37.0,73,0.00,,,-99.99,Weather View 32 v60,2013-02-18 22:45:00,
2013-02-18 17:00:00,22.0,15.0,30.14,NW,315,9.0,37.0,74,0.00,,,-99.99,Weather View 32 v60,2013-02-18 23:00:00,
2013-02-18 17:15:00,21.0,14.3,30.14,WNW,292,6.0,35.0,75,0.00,,,-99.99,Weather View 32 v60,2013-02-18 23:15:00,
2013-02-18 17:30:00,21.0,14.9,30.14,WNW,292,19.0,35.0,77,0.00,,,-99.99,Weather View 32 v60,2013-02-18 23:30:00,
2013-02-18 17:45:00,20.0,13.7,30.16,North,360,19.0,35.0,76,0.00,,,-99.99,Weather View 32 v60,2013-02-18 23:45:00,
2013-02-18 18:00:00,19.0,13.0,30.16,NNW,337,20.0,35.0,77,0.00,,,-99.99,Weather View 32 v60,2013-02-19 00:00:00,
2013-02-18 18:15:00,18.0,13.4,30.17,NW,315,10.0,35.0,82,0.00,,,-99.99,Weather View 32 v60,2013-02-19 00:15:00,
2013-02-18 18:30:00,18.0,12.9,30.18,NNW,337,19.0,34.0,80,0.00,,,-99.99,Weather View 32 v60,2013-02-19 00:30:00,
2013-02-18 18:46:00,17.0,13.0,30.20,NW,315,10.0,34.0,84,0.00,,,-99.99,Weather View 32 v60,2013-02-19 00:46:00,
2013-02-18 19:00:00,17.0,12.2,30.20,NNW,337,9.0,34.0,81,0.00,,,-99.99,Weather View 32 v60,2013-02-19 01:00:00,
2013-02-18 19:15:00,17.0,12.7,30.20,NW,315,13.0,34.0,83,0.00,,,-99.99,Weather View 32 v60,2013-02-19 01:15:00,
2013-02-18 19:30:00,17.0,13.0,30.20,NNW,337,12.0,34.0,84,0.00,,,-99.99,Weather View 32 v60,2013-02-19 01:30:00,
2013-02-18 19:45:00,17.0,13.0,30.20,NNW,337,0.0,34.0,84,0.00,,,-99.99,Weather View 32 v60,2013-02-19 01:45:00,
2013-02-18 20:00:00,17.0,12.7,30.20,North,360,13.0,29.0,83,0.00,,,-99.99,Weather View 32 v60,2013-02-19 02:00:00,
2013-02-18 20:15:00,17.0,12.7,30.20,North,360,2.0,29.0,83,0.00,,,-99.99,Weather View 32 v60,2013-02-19 02:15:00,
2013-02-18 20:30:00,16.0,12.3,30.21,NNW,337,10.0,29.0,85,0.00,,,-99.99,Weather View 32 v60,2013-02-19 02:30:00,
2013-02-18 20:45:00,16.0,12.8,30.22,NNW,337,0.0,29.0,87,0.00,,,-99.99,Weather View 32 v60,2013-02-19 02:45:00,
2013-02-18 21:00:00,15.0,12.1,30.22,NNW,337,1.0,29.0,88,0.00,,,-99.99,Weather View 32 v60,2013-02-19 03:00:00,
2013-02-18 21:15:00,15.0,11.6,30.22,NNW,337,2.0,28.0,86,0.00,,,-99.99,Weather View 32 v60,2013-02-19 03:15:00,
2013-02-18 21:30:00,14.0,10.6,30.23,NNW,337,11.0,28.0,86,0.00,,,-99.99,Weather View 32 v60,2013-02-19 03:30:00,
2013-02-18 21:45:00,14.0,10.1,30.25,WNW,292,12.0,27.0,84,0.00,,,-99.99,Weather View 32 v60,2013-02-19 03:45:00,
2013-02-18 22:00:00,14.0,10.9,30.25,NNW,337,9.0,31.0,87,0.00,,,-99.99,Weather View 32 v60,2013-02-19 04:00:00,
2013-02-18 22:15:00,13.0,10.4,30.26,NNE,22,0.0,31.0,89,0.00,,,-99.99,Weather View 32 v60,2013-02-19 04:15:00,
2013-02-18 22:30:00,13.0,9.9,30.25,NNW,337,10.0,31.0,87,0.00,,,-99.99,Weather View 32 v60,2013-02-19 04:30:00,
2013-02-18 22:45:00,12.0,9.1,30.28,NNE,22,0.0,31.0,88,0.00,,,-99.99,Weather View 32 v60,2013-02-19 04:45:00,
2013-02-18 23:00:00,12.0,9.1,30.27,NW,315,7.0,28.0,88,0.00,,,-99.99,Weather View 32 v60,2013-02-19 05:00:00,
2013-02-18 23:15:00,11.0,7.6,30.28,NW,315,12.0,28.0,86,0.00,,,-99.99,Weather View 32 v60,2013-02-19 05:15:00,
2013-02-18 23:30:00,10.0,6.4,30.28,NNW,337,13.0,29.0,85,0.00,,,-99.99,Weather View 32 v60,2013-02-19 05:30:00,
2013-02-18 23:45:00,10.0,6.9,30.29,NNE,22,0.0,29.0,87,0.00,,,-99.99,Weather View 32 v60,2013-02-19 05:45:00,